sensor_id;sensor_type;location;lat;lon;timestamp;pressure;altitude;pressure_sealevel;temperature;humidity
44988;BME280;35735;52.226;21.254;2023-03-12T00:04:00;99263.84;;;-0.62;100.00
44988;BME280;35735;52.226;21.254;2023-03-12T00:09:01;99271.00;;;-0.58;100.00
44988;BME280;35735;52.226;21.254;2023-03-12T00:14:02;99270.91;;;-0.61;100.00
44988;BME280;35735;52.226;21.254;2023-03-12T00:19:02;99269.84;;;-0.67;100.00
44988;BME280;35735;52.226;21.254;2023-03-12T00:24:03;99267.09;;;-0.70;100.00
44988;BME280;35735;52.226;21.254;2023-03-12T00:29:04;99267.06;;;-0.72;100.00
44988;BME280;35735;52.226;21.254;2023-03-12T00:34:04;99259.94;;;-0.75;100.00
44988;BME280;35735;52.226;21.254;2023-03-12T00:39:05;99265.12;;;-0.79;100.00
44988;BME280;35735;52.226;21.254;2023-03-12T00:44:06;99257.13;;;-0.81;100.00
44988;BME280;35735;52.226;21.254;2023-03-12T00:49:06;99244.66;;;-0.85;100.00
44988;BME280;35735;52.226;21.254;2023-03-12T00:54:07;99249.97;;;-0.85;100.00
44988;BME280;35735;52.226;21.254;2023-03-12T00:59:07;99238.53;;;-0.82;100.00
44988;BME280;35735;52.226;21.254;2023-03-12T01:04:08;99243.84;;;-0.82;100.00
44988;BME280;35735;52.226;21.254;2023-03-12T01:09:09;99243.94;;;-0.79;100.00
44988;BME280;35735;52.226;21.254;2023-03-12T01:14:10;99247.59;;;-0.74;100.00
44988;BME280;35735;52.226;21.254;2023-03-12T01:19:10;99244.00;;;-0.76;100.00
44988;BME280;35735;52.226;21.254;2023-03-12T01:24:11;99230.63;;;-0.81;100.00
44988;BME280;35735;52.226;21.254;2023-03-12T01:29:11;99238.59;;;-0.81;100.00
44988;BME280;35735;52.226;21.254;2023-03-12T01:34:12;99231.56;;;-0.79;100.00
44988;BME280;35735;52.226;21.254;2023-03-12T01:39:14;99222.69;;;-0.81;100.00
44988;BME280;35735;52.226;21.254;2023-03-12T01:44:14;99227.94;;;-0.82;100.00
44988;BME280;35735;52.226;21.254;2023-03-12T01:49:29;99214.91;;;-0.75;100.00
44988;BME280;35735;52.226;21.254;2023-03-12T01:54:34;99205.28;;;-0.71;100.00
44988;BME280;35735;52.226;21.254;2023-03-12T01:59:44;99200.16;;;-0.65;100.00
44988;BME280;35735;52.226;21.254;2023-03-12T02:04:49;99198.41;;;-0.63;100.00
44988;BME280;35735;52.226;21.254;2023-03-12T02:09:51;99204.66;;;-0.61;100.00
44988;BME280;35735;52.226;21.254;2023-03-12T02:14:51;99210.75;;;-0.65;100.00
44988;BME280;35735;52.226;21.254;2023-03-12T02:20:28;99220.56;;;-0.61;100.00
44988;BME280;35735;52.226;21.254;2023-03-12T02:25:37;99223.44;;;-0.51;100.00
44988;BME280;35735;52.226;21.254;2023-03-12T02:30:41;99211.06;;;-0.51;100.00
44988;BME280;35735;52.226;21.254;2023-03-12T02:35:46;99212.16;;;-0.43;100.00
44988;BME280;35735;52.226;21.254;2023-03-12T02:40:47;99222.00;;;-0.37;100.00
44988;BME280;35735;52.226;21.254;2023-03-12T02:45:48;99216.66;;;-0.40;100.00
44988;BME280;35735;52.226;21.254;2023-03-12T02:50:49;99214.91;;;-0.40;100.00
44988;BME280;35735;52.226;21.254;2023-03-12T02:55:49;99219.38;;;-0.37;100.00
44988;BME280;35735;52.226;21.254;2023-03-12T03:00:50;99215.91;;;-0.34;100.00
44988;BME280;35735;52.226;21.254;2023-03-12T03:05:51;99208.09;;;-0.28;100.00
44988;BME280;35735;52.226;21.254;2023-03-12T03:10:51;99211.72;;;-0.25;100.00
44988;BME280;35735;52.226;21.254;2023-03-12T03:15:52;99217.09;;;-0.22;100.00
44988;BME280;35735;52.226;21.254;2023-03-12T03:20:57;99233.06;;;-0.19;100.00
44988;BME280;35735;52.226;21.254;2023-03-12T03:26:03;99237.59;;;-0.14;100.00
44988;BME280;35735;52.226;21.254;2023-03-12T03:31:03;99241.97;;;-0.16;100.00
44988;BME280;35735;52.226;21.254;2023-03-12T03:36:06;99246.44;;;-0.14;100.00
44988;BME280;35735;52.226;21.254;2023-03-12T03:41:07;99250.94;;;-0.11;100.00
44988;BME280;35735;52.226;21.254;2023-03-12T03:46:09;99259.03;;;-0.05;100.00
44988;BME280;35735;52.226;21.254;2023-03-12T03:51:10;99262.50;;;-0.08;100.00
44988;BME280;35735;52.226;21.254;2023-03-12T03:56:15;99258.97;;;-0.08;100.00
44988;BME280;35735;52.226;21.254;2023-03-12T04:01:16;99261.69;;;-0.05;100.00
44988;BME280;35735;52.226;21.254;2023-03-12T04:06:16;99264.31;;;-0.07;100.00
44988;BME280;35735;52.226;21.254;2023-03-12T04:11:19;99261.56;;;-0.11;100.00
44988;BME280;35735;52.226;21.254;2023-03-12T04:16:20;99280.12;;;-0.11;100.00
44988;BME280;35735;52.226;21.254;2023-03-12T04:21:21;99285.37;;;-0.13;100.00
44988;BME280;35735;52.226;21.254;2023-03-12T04:26:21;99286.34;;;-0.09;100.00
44988;BME280;35735;52.226;21.254;2023-03-12T04:31:22;99297.88;;;-0.07;100.00
44988;BME280;35735;52.226;21.254;2023-03-12T04:36:22;99286.50;;;-0.03;100.00
44988;BME280;35735;52.226;21.254;2023-03-12T04:41:23;99292.75;;;-0.01;100.00
44988;BME280;35735;52.226;21.254;2023-03-12T04:46:24;99292.78;;;0.01;100.00
44988;BME280;35735;52.226;21.254;2023-03-12T04:51:24;99284.06;;;0.06;100.00
44988;BME280;35735;52.226;21.254;2023-03-12T04:56:25;99287.63;;;0.08;100.00
44988;BME280;35735;52.226;21.254;2023-03-12T05:01:30;99277.91;;;0.07;100.00
44988;BME280;35735;52.226;21.254;2023-03-12T05:06:33;99277.97;;;0.10;100.00
44988;BME280;35735;52.226;21.254;2023-03-12T05:11:34;99283.34;;;0.13;100.00
44988;BME280;35735;52.226;21.254;2023-03-12T05:16:34;99288.72;;;0.16;100.00
44988;BME280;35735;52.226;21.254;2023-03-12T05:21:35;99288.69;;;0.15;100.00
44988;BME280;35735;52.226;21.254;2023-03-12T05:26:36;99289.66;;;0.18;100.00
44988;BME280;35735;52.226;21.254;2023-03-12T05:31:37;99287.91;;;0.19;100.00
44988;BME280;35735;52.226;21.254;2023-03-12T05:36:37;99294.09;;;0.20;100.00
44988;BME280;35735;52.226;21.254;2023-03-12T05:41:38;99290.69;;;0.24;100.00
44988;BME280;35735;52.226;21.254;2023-03-12T05:46:39;99303.06;;;0.25;100.00
44988;BME280;35735;52.226;21.254;2023-03-12T05:51:39;99315.56;;;0.29;100.00
44988;BME280;35735;52.226;21.254;2023-03-12T05:56:40;99311.12;;;0.29;100.00
44988;BME280;35735;52.226;21.254;2023-03-12T06:01:41;99316.44;;;0.29;100.00
44988;BME280;35735;52.226;21.254;2023-03-12T06:06:41;99308.44;;;0.28;100.00
44988;BME280;35735;52.226;21.254;2023-03-12T06:11:42;99320.88;;;0.29;100.00
44988;BME280;35735;52.226;21.254;2023-03-12T06:16:42;99326.19;;;0.29;100.00
44988;BME280;35735;52.226;21.254;2023-03-12T06:21:43;99335.06;;;0.31;100.00
44988;BME280;35735;52.226;21.254;2023-03-12T06:26:44;99346.75;;;0.39;100.00
44988;BME280;35735;52.226;21.254;2023-03-12T06:31:44;99349.41;;;0.39;100.00
44988;BME280;35735;52.226;21.254;2023-03-12T06:36:45;99352.06;;;0.39;100.00
44988;BME280;35735;52.226;21.254;2023-03-12T06:41:46;99347.84;;;0.47;100.00
44988;BME280;35735;52.226;21.254;2023-03-12T06:46:46;99355.00;;;0.51;100.00
44988;BME280;35735;52.226;21.254;2023-03-12T06:51:47;99356.09;;;0.60;100.00
44988;BME280;35735;52.226;21.254;2023-03-12T06:56:47;99367.84;;;0.71;100.00
44988;BME280;35735;52.226;21.254;2023-03-12T07:01:48;99378.66;;;0.80;100.00
44988;BME280;35735;52.226;21.254;2023-03-12T07:06:49;99376.97;;;0.82;100.00
44988;BME280;35735;52.226;21.254;2023-03-12T07:11:49;99380.62;;;0.87;100.00
44988;BME280;35735;52.226;21.254;2023-03-12T07:16:50;99403.66;;;0.88;100.00
44988;BME280;35735;52.226;21.254;2023-03-12T07:21:50;99405.63;;;0.97;100.00
44988;BME280;35735;52.226;21.254;2023-03-12T07:26:51;99400.41;;;1.02;100.00
44988;BME280;35735;52.226;21.254;2023-03-12T07:31:52;99405.03;;;1.10;100.00
44988;BME280;35735;52.226;21.254;2023-03-12T07:36:54;99408.81;;;1.22;100.00
44988;BME280;35735;52.226;21.254;2023-03-12T07:41:54;99418.62;;;1.24;100.00
44988;BME280;35735;52.226;21.254;2023-03-12T07:46:55;99414.09;;;1.19;100.00
44988;BME280;35735;52.226;21.254;2023-03-12T07:51:56;99414.16;;;1.23;100.00
44988;BME280;35735;52.226;21.254;2023-03-12T07:56:56;99421.37;;;1.29;100.00
44988;BME280;35735;52.226;21.254;2023-03-12T08:01:57;99431.97;;;1.27;100.00
44988;BME280;35735;52.226;21.254;2023-03-12T08:06:57;99431.41;;;1.42;100.00
44988;BME280;35735;52.226;21.254;2023-03-12T08:11:58;99442.47;;;1.62;100.00
44988;BME280;35735;52.226;21.254;2023-03-12T08:16:58;99439.94;;;1.70;100.00
44988;BME280;35735;52.226;21.254;2023-03-12T08:21:59;99456.06;;;1.78;100.00
44988;BME280;35735;52.226;21.254;2023-03-12T08:27:00;99458.78;;;1.81;100.00
44988;BME280;35735;52.226;21.254;2023-03-12T08:32:01;99458.84;;;1.84;100.00
44988;BME280;35735;52.226;21.254;2023-03-12T08:37:01;99457.09;;;1.86;100.00
44988;BME280;35735;52.226;21.254;2023-03-12T08:42:02;99477.59;;;1.92;100.00
44988;BME280;35735;52.226;21.254;2023-03-12T08:47:03;99472.28;;;1.92;100.00
44988;BME280;35735;52.226;21.254;2023-03-12T08:52:04;99496.16;;;1.89;98.89
44988;BME280;35735;52.226;21.254;2023-03-12T08:57:05;99499.34;;;1.69;100.00
44988;BME280;35735;52.226;21.254;2023-03-12T09:02:05;99507.16;;;1.61;100.00
44988;BME280;35735;52.226;21.254;2023-03-12T09:07:06;99498.66;;;1.79;99.06
44988;BME280;35735;52.226;21.254;2023-03-12T09:12:07;99503.19;;;1.85;99.53
44988;BME280;35735;52.226;21.254;2023-03-12T09:17:07;99502.62;;;2.00;99.05
44988;BME280;35735;52.226;21.254;2023-03-12T09:22:08;99507.41;;;2.18;99.09
44988;BME280;35735;52.226;21.254;2023-03-12T09:27:08;99522.53;;;2.20;95.74
44988;BME280;35735;52.226;21.254;2023-03-12T09:32:09;99525.97;;;2.15;95.04
44988;BME280;35735;52.226;21.254;2023-03-12T09:37:09;99528.06;;;2.31;94.41
44988;BME280;35735;52.226;21.254;2023-03-12T09:42:21;99519.00;;;2.70;94.22
44988;BME280;35735;52.226;21.254;2023-03-12T09:47:36;99538.53;;;2.69;91.83
44988;BME280;35735;52.226;21.254;2023-03-12T09:52:52;99525.44;;;2.83;92.75
44988;BME280;35735;52.226;21.254;2023-03-12T09:57:57;99537.44;;;3.11;89.55
44988;BME280;35735;52.226;21.254;2023-03-12T10:08:37;99551.06;;;3.30;87.45
44988;BME280;35735;52.226;21.254;2023-03-12T10:24:53;99547.09;;;3.03;87.49
44988;BME280;35735;52.226;21.254;2023-03-12T10:30:19;99565.66;;;2.99;86.59
44988;BME280;35735;52.226;21.254;2023-03-12T10:35:25;99572.59;;;2.89;84.26
44988;BME280;35735;52.226;21.254;2023-03-12T10:40:33;99573.53;;;2.89;86.92
44988;BME280;35735;52.226;21.254;2023-03-12T10:45:42;99571.69;;;2.87;85.90
44988;BME280;35735;52.226;21.254;2023-03-12T11:01:06;99592.16;;;2.88;85.01
44988;BME280;35735;52.226;21.254;2023-03-12T11:06:26;99580.16;;;3.14;84.50
44988;BME280;35735;52.226;21.254;2023-03-12T11:11:36;99582.34;;;3.40;84.61
44988;BME280;35735;52.226;21.254;2023-03-12T11:16:36;99588.72;;;3.50;83.58
44988;BME280;35735;52.226;21.254;2023-03-12T11:21:37;99603.25;;;3.70;84.52
44988;BME280;35735;52.226;21.254;2023-03-12T11:43:06;99596.16;;;4.40;83.24
44988;BME280;35735;52.226;21.254;2023-03-12T11:48:30;99592.81;;;4.59;81.62
44988;BME280;35735;52.226;21.254;2023-03-12T11:54:05;99609.53;;;4.43;76.67
44988;BME280;35735;52.226;21.254;2023-03-12T12:10:51;99616.97;;;3.97;77.86
44988;BME280;35735;52.226;21.254;2023-03-12T12:27:25;99600.97;;;4.75;77.50
44988;BME280;35735;52.226;21.254;2023-03-12T12:32:58;99623.19;;;4.71;75.67
44988;BME280;35735;52.226;21.254;2023-03-12T12:43:47;99641.94;;;4.72;74.52
44988;BME280;35735;52.226;21.254;2023-03-12T12:49:00;99640.97;;;4.66;76.34
44988;BME280;35735;52.226;21.254;2023-03-12T12:54:39;99656.06;;;4.62;75.44
44988;BME280;35735;52.226;21.254;2023-03-12T13:00:39;99654.22;;;4.55;73.73
44988;BME280;35735;52.226;21.254;2023-03-12T13:05:47;99663.00;;;4.44;75.74
44988;BME280;35735;52.226;21.254;2023-03-12T13:10:55;99659.56;;;4.55;75.12
44988;BME280;35735;52.226;21.254;2023-03-12T13:16:17;99672.13;;;4.62;72.29
44988;BME280;35735;52.226;21.254;2023-03-12T13:27:13;99688.84;;;4.47;73.92
44988;BME280;35735;52.226;21.254;2023-03-12T13:43:01;99693.19;;;4.39;73.92
44988;BME280;35735;52.226;21.254;2023-03-12T13:48:19;99706.56;;;4.39;73.99
44988;BME280;35735;52.226;21.254;2023-03-12T13:53:23;99715.47;;;4.41;74.09
44988;BME280;35735;52.226;21.254;2023-03-12T13:58:26;99708.31;;;4.37;74.34
44988;BME280;35735;52.226;21.254;2023-03-12T14:03:34;99719.09;;;4.43;74.94
44988;BME280;35735;52.226;21.254;2023-03-12T14:20:17;99735.13;;;4.43;74.14
44988;BME280;35735;52.226;21.254;2023-03-12T14:25:30;99732.50;;;4.48;72.84
44988;BME280;35735;52.226;21.254;2023-03-12T14:36:20;99733.31;;;4.42;74.75
44988;BME280;35735;52.226;21.254;2023-03-12T14:41:29;99750.22;;;4.39;74.36
44988;BME280;35735;52.226;21.254;2023-03-12T14:46:33;99748.38;;;4.35;71.87
44988;BME280;35735;52.226;21.254;2023-03-12T14:51:35;99750.03;;;4.27;72.96
44988;BME280;35735;52.226;21.254;2023-03-12T14:56:35;99750.91;;;4.24;73.23
44988;BME280;35735;52.226;21.254;2023-03-12T15:01:37;99747.34;;;4.25;73.87
44988;BME280;35735;52.226;21.254;2023-03-12T15:06:43;99759.88;;;4.30;73.92
44988;BME280;35735;52.226;21.254;2023-03-12T15:11:51;99774.16;;;4.32;73.79
44988;BME280;35735;52.226;21.254;2023-03-12T15:16:55;99777.63;;;4.27;74.59
44988;BME280;35735;52.226;21.254;2023-03-12T15:21:56;99783.84;;;4.25;74.51
44988;BME280;35735;52.226;21.254;2023-03-12T15:27:17;99794.34;;;4.14;74.41
44988;BME280;35735;52.226;21.254;2023-03-12T15:32:25;99800.47;;;4.07;75.55
44988;BME280;35735;52.226;21.254;2023-03-12T15:42:28;99812.59;;;3.86;76.02
44988;BME280;35735;52.226;21.254;2023-03-12T15:47:30;99822.22;;;3.77;76.71
44988;BME280;35735;52.226;21.254;2023-03-12T15:52:34;99813.13;;;3.65;77.29
44988;BME280;35735;52.226;21.254;2023-03-12T15:57:55;99821.03;;;3.61;77.53
44988;BME280;35735;52.226;21.254;2023-03-12T16:03:02;99814.72;;;3.56;78.07
44988;BME280;35735;52.226;21.254;2023-03-12T16:08:13;99829.09;;;3.64;78.62
44988;BME280;35735;52.226;21.254;2023-03-12T16:13:20;99833.69;;;3.71;78.70
44988;BME280;35735;52.226;21.254;2023-03-12T16:18:23;99833.69;;;3.71;78.87
44988;BME280;35735;52.226;21.254;2023-03-12T16:23:24;99836.28;;;3.66;78.77
44988;BME280;35735;52.226;21.254;2023-03-12T16:28:25;99842.50;;;3.67;79.52
44988;BME280;35735;52.226;21.254;2023-03-12T16:33:26;99840.81;;;3.72;79.49
44988;BME280;35735;52.226;21.254;2023-03-12T16:38:26;99850.66;;;3.75;79.74
44988;BME280;35735;52.226;21.254;2023-03-12T16:43:28;99848.97;;;3.80;79.93
44988;BME280;35735;52.226;21.254;2023-03-12T16:48:29;99861.50;;;3.84;80.05
44988;BME280;35735;52.226;21.254;2023-03-12T16:53:30;99853.50;;;3.85;79.99
44988;BME280;35735;52.226;21.254;2023-03-12T16:58:31;99862.50;;;3.90;80.21
44988;BME280;35735;52.226;21.254;2023-03-12T17:03:33;99860.66;;;3.86;80.05
44988;BME280;35735;52.226;21.254;2023-03-12T17:08:35;99873.16;;;3.89;80.25
44988;BME280;35735;52.226;21.254;2023-03-12T17:13:36;99879.41;;;3.89;80.39
44988;BME280;35735;52.226;21.254;2023-03-12T17:18:38;99885.41;;;3.76;80.50
44988;BME280;35735;52.226;21.254;2023-03-12T17:23:40;99882.50;;;3.65;80.65
44988;BME280;35735;52.226;21.254;2023-03-12T17:28:41;99883.38;;;3.63;81.04
44988;BME280;35735;52.226;21.254;2023-03-12T17:33:41;99894.13;;;3.69;81.44
44988;BME280;35735;52.226;21.254;2023-03-12T17:38:42;99897.69;;;3.68;81.78
44988;BME280;35735;52.226;21.254;2023-03-12T17:43:43;99901.09;;;3.61;82.11
44988;BME280;35735;52.226;21.254;2023-03-12T17:48:43;99903.72;;;3.58;82.62
44988;BME280;35735;52.226;21.254;2023-03-12T17:53:44;99908.31;;;3.65;83.02
44988;BME280;35735;52.226;21.254;2023-03-12T17:58:45;99908.44;;;3.71;83.29
44988;BME280;35735;52.226;21.254;2023-03-12T18:03:46;99912.09;;;3.76;83.64
44988;BME280;35735;52.226;21.254;2023-03-12T18:08:48;99912.09;;;3.76;83.73
44988;BME280;35735;52.226;21.254;2023-03-12T18:13:49;99918.31;;;3.77;83.76
44988;BME280;35735;52.226;21.254;2023-03-12T18:18:49;99915.66;;;3.77;84.07
44988;BME280;35735;52.226;21.254;2023-03-12T18:23:50;99922.69;;;3.73;84.24
44988;BME280;35735;52.226;21.254;2023-03-12T18:28:50;99929.72;;;3.68;84.58
44988;BME280;35735;52.226;21.254;2023-03-12T18:33:51;99934.03;;;3.61;84.92
44988;BME280;35735;52.226;21.254;2023-03-12T18:38:51;99947.28;;;3.57;85.08
44988;BME280;35735;52.226;21.254;2023-03-12T18:43:52;99944.47;;;3.50;85.34
44988;BME280;35735;52.226;21.254;2023-03-12T18:48:53;99938.06;;;3.42;85.58
44988;BME280;35735;52.226;21.254;2023-03-12T18:53:53;99943.22;;;3.33;85.98
44988;BME280;35735;52.226;21.254;2023-03-12T18:58:54;99942.94;;;3.21;86.12
44988;BME280;35735;52.226;21.254;2023-03-12T19:03:54;99940.94;;;3.10;86.29
44988;BME280;35735;52.226;21.254;2023-03-12T19:08:55;99938.94;;;3.00;86.69
44988;BME280;35735;52.226;21.254;2023-03-12T19:13:55;99931.59;;;2.90;87.05
44988;BME280;35735;52.226;21.254;2023-03-12T19:18:56;99935.91;;;2.83;87.30
44988;BME280;35735;52.226;21.254;2023-03-12T19:23:57;99933.13;;;2.78;87.67
44988;BME280;35735;52.226;21.254;2023-03-12T19:28:57;99936.50;;;2.71;87.95
44988;BME280;35735;52.226;21.254;2023-03-12T19:33:58;99934.63;;;2.67;88.24
44988;BME280;35735;52.226;21.254;2023-03-12T19:38:59;99939.78;;;2.59;88.77
44988;BME280;35735;52.226;21.254;2023-03-12T19:43:59;99949.34;;;2.51;89.02
44988;BME280;35735;52.226;21.254;2023-03-12T19:49:00;99958.06;;;2.44;89.50
44988;BME280;35735;52.226;21.254;2023-03-12T19:54:00;99951.66;;;2.37;89.95
44988;BME280;35735;52.226;21.254;2023-03-12T19:59:01;99965.91;;;2.39;90.15
44988;BME280;35735;52.226;21.254;2023-03-12T20:04:02;99970.50;;;2.45;90.20
44988;BME280;35735;52.226;21.254;2023-03-12T20:09:03;99978.44;;;2.44;90.44
44988;BME280;35735;52.226;21.254;2023-03-12T20:14:04;99973.03;;;2.40;90.58
44988;BME280;35735;52.226;21.254;2023-03-12T20:19:05;99980.97;;;2.37;91.00
44988;BME280;35735;52.226;21.254;2023-03-12T20:24:05;99977.50;;;2.41;91.18
44988;BME280;35735;52.226;21.254;2023-03-12T20:29:06;99981.81;;;2.36;91.24
44988;BME280;35735;52.226;21.254;2023-03-12T20:34:07;99978.69;;;2.18;91.34
44988;BME280;35735;52.226;21.254;2023-03-12T20:39:07;99965.69;;;1.97;91.72
44988;BME280;35735;52.226;21.254;2023-03-12T20:44:08;99963.50;;;1.82;92.05
44988;BME280;35735;52.226;21.254;2023-03-12T20:49:08;99957.88;;;1.71;92.30
44988;BME280;35735;52.226;21.254;2023-03-12T20:54:09;99951.19;;;1.55;92.54
44988;BME280;35735;52.226;21.254;2023-03-12T20:59:10;99953.72;;;1.49;93.06
44988;BME280;35735;52.226;21.254;2023-03-12T21:04:11;99946.19;;;1.34;93.42
44988;BME280;35735;52.226;21.254;2023-03-12T21:09:11;99949.47;;;1.25;93.80
44988;BME280;35735;52.226;21.254;2023-03-12T21:14:12;99950.13;;;1.18;93.87
44988;BME280;35735;52.226;21.254;2023-03-12T21:19:13;99943.41;;;1.01;94.35
44988;BME280;35735;52.226;21.254;2023-03-12T21:24:13;99943.22;;;0.95;94.50
44988;BME280;35735;52.226;21.254;2023-03-12T21:29:14;99939.22;;;0.80;94.77
44988;BME280;35735;52.226;21.254;2023-03-12T21:34:14;99939.78;;;0.70;95.31
44988;BME280;35735;52.226;21.254;2023-03-12T21:39:15;99936.06;;;0.65;95.74
44988;BME280;35735;52.226;21.254;2023-03-12T21:44:15;99936.59;;;0.53;96.19
44988;BME280;35735;52.226;21.254;2023-03-12T21:49:16;99935.69;;;0.52;96.55
44988;BME280;35735;52.226;21.254;2023-03-12T21:54:17;99925.81;;;0.48;96.87
44988;BME280;35735;52.226;21.254;2023-03-12T21:59:17;99936.19;;;0.41;97.16
44988;BME280;35735;52.226;21.254;2023-03-12T22:04:18;99930.13;;;0.45;97.53
44988;BME280;35735;52.226;21.254;2023-03-12T22:09:19;99923.06;;;0.45;97.89
44988;BME280;35735;52.226;21.254;2023-03-12T22:14:21;99923.72;;;0.38;97.93
44988;BME280;35735;52.226;21.254;2023-03-12T22:19:22;99925.19;;;0.30;98.29
44988;BME280;35735;52.226;21.254;2023-03-12T22:24:23;99919.28;;;0.37;98.63
44988;BME280;35735;52.226;21.254;2023-03-12T22:29:23;99916.00;;;0.46;98.84
44988;BME280;35735;52.226;21.254;2023-03-12T22:34:24;99907.16;;;0.45;99.03
44988;BME280;35735;52.226;21.254;2023-03-12T22:39:24;99907.31;;;0.51;99.20
44988;BME280;35735;52.226;21.254;2023-03-12T22:44:25;99904.97;;;0.61;99.32
44988;BME280;35735;52.226;21.254;2023-03-12T22:49:26;99903.38;;;0.66;99.37
44988;BME280;35735;52.226;21.254;2023-03-12T22:54:26;99890.19;;;0.69;99.28
44988;BME280;35735;52.226;21.254;2023-03-12T22:59:27;99885.03;;;0.75;99.46
44988;BME280;35735;52.226;21.254;2023-03-12T23:04:27;99881.53;;;0.76;99.34
44988;BME280;35735;52.226;21.254;2023-03-12T23:09:28;99889.41;;;0.73;99.33
44988;BME280;35735;52.226;21.254;2023-03-12T23:14:28;99868.84;;;0.66;99.45
44988;BME280;35735;52.226;21.254;2023-03-12T23:19:32;99876.94;;;0.70;99.42
44988;BME280;35735;52.226;21.254;2023-03-12T23:24:33;99862.09;;;0.77;99.67
44988;BME280;35735;52.226;21.254;2023-03-12T23:29:33;99868.66;;;0.90;99.69
44988;BME280;35735;52.226;21.254;2023-03-12T23:34:34;99865.69;;;1.09;99.99
44988;BME280;35735;52.226;21.254;2023-03-12T23:39:35;99866.97;;;1.22;99.89
44988;BME280;35735;52.226;21.254;2023-03-12T23:44:35;99843.97;;;1.24;99.80
44988;BME280;35735;52.226;21.254;2023-03-12T23:49:36;99829.69;;;1.21;99.69
44988;BME280;35735;52.226;21.254;2023-03-12T23:54:36;99833.34;;;1.24;99.76
44988;BME280;35735;52.226;21.254;2023-03-12T23:59:37;99846.81;;;1.31;99.64
